createdAt,value
2023-03-22T00:00:20.842Z,0
2023-03-22T00:01:23.882Z,0
2023-03-22T00:02:21.206Z,0
2023-03-22T00:03:20.891Z,0
2023-03-22T00:04:21.043Z,0
2023-03-22T00:05:20.842Z,0
2023-03-22T00:06:23.627Z,0
2023-03-22T00:07:20.807Z,0
2023-03-22T00:08:20.785Z,0
2023-03-22T00:09:20.794Z,0
2023-03-22T00:10:20.838Z,0
2023-03-22T00:11:20.792Z,0
2023-03-22T00:12:23.546Z,0
2023-03-22T00:13:20.785Z,0
2023-03-22T00:14:20.777Z,0
2023-03-22T00:15:20.851Z,0
2023-03-22T00:16:21.045Z,0
2023-03-22T00:17:23.866Z,0
2023-03-22T00:18:20.776Z,0
2023-03-22T00:19:20.854Z,0
2023-03-22T00:20:23.092Z,0
2023-03-22T00:21:20.896Z,0
2023-03-22T00:22:20.865Z,0
2023-03-22T00:23:23.756Z,0
2023-03-22T00:24:20.839Z,0
2023-03-22T00:25:20.863Z,0
2023-03-22T00:26:20.866Z,0
2023-03-22T00:27:20.857Z,0
2023-03-22T00:28:23.684Z,0
2023-03-22T00:29:20.862Z,0
2023-03-22T00:30:20.939Z,0
2023-03-22T00:31:20.991Z,0
2023-03-22T00:32:20.844Z,0
2023-03-22T00:33:20.824Z,0
2023-03-22T00:34:24.005Z,0
2023-03-22T00:35:20.980Z,0
2023-03-22T00:36:20.851Z,0
2023-03-22T00:37:21.126Z,0
2023-03-22T00:38:29.903Z,0
2023-03-22T00:39:23.657Z,0
2023-03-22T00:40:22.948Z,0
2023-03-22T00:41:20.990Z,0
2023-03-22T00:42:20.837Z,0
2023-03-22T00:43:20.870Z,0
2023-03-22T00:44:20.883Z,0
2023-03-22T00:45:20.910Z,0
2023-03-22T00:46:21.257Z,0
2023-03-22T00:47:20.847Z,0
2023-03-22T00:48:21.122Z,0
2023-03-22T00:49:20.886Z,0
2023-03-22T00:50:23.948Z,0
2023-03-22T00:51:20.912Z,0
2023-03-22T00:52:20.927Z,0
2023-03-22T00:53:20.872Z,0
2023-03-22T00:54:20.927Z,0
2023-03-22T00:55:20.883Z,0
2023-03-22T00:56:21.330Z,0
2023-03-22T00:57:20.850Z,0
2023-03-22T00:58:20.908Z,0
2023-03-22T00:59:20.959Z,0
2023-03-22T01:00:20.897Z,0
2023-03-22T01:01:24.542Z,0
2023-03-22T01:02:20.903Z,0
2023-03-22T01:03:21.156Z,0
2023-03-22T01:04:20.865Z,0
2023-03-22T01:05:20.922Z,0
2023-03-22T01:06:20.937Z,0
2023-03-22T01:07:20.988Z,0
2023-03-22T01:08:20.925Z,0
2023-03-22T01:09:20.900Z,0
2023-03-22T01:10:20.862Z,0
2023-03-22T01:11:20.909Z,0
2023-03-22T01:12:23.945Z,0
2023-03-22T01:13:22.657Z,0
2023-03-22T01:14:21.273Z,0
2023-03-22T01:15:20.934Z,0
2023-03-22T01:16:21.153Z,0
2023-03-22T01:17:21.078Z,0
2023-03-22T01:18:20.968Z,0
2023-03-22T01:19:20.910Z,0
2023-03-22T01:20:21.243Z,0
2023-03-22T01:21:20.912Z,0
2023-03-22T01:22:21.080Z,0
2023-03-22T01:23:20.895Z,0
2023-03-22T01:24:20.915Z,0
2023-03-22T01:25:20.954Z,0
2023-03-22T01:26:20.978Z,0
2023-03-22T01:27:21.160Z,0
2023-03-22T01:28:20.952Z,0
2023-03-22T01:29:20.912Z,0
2023-03-22T01:30:20.972Z,0
2023-03-22T01:31:21.226Z,0
2023-03-22T01:32:20.943Z,0
2023-03-22T01:33:21.393Z,0
2023-03-22T01:34:21.061Z,0
2023-03-22T01:35:20.940Z,0
2023-03-22T01:36:20.957Z,0
2023-03-22T01:37:21.042Z,0
2023-03-22T01:38:20.948Z,0
2023-03-22T01:39:20.907Z,0
2023-03-22T01:40:20.948Z,0
2023-03-22T01:41:21.065Z,0
2023-03-22T01:42:20.978Z,0
2023-03-22T01:43:20.980Z,0
2023-03-22T01:44:24.046Z,0
2023-03-22T01:45:20.976Z,0
2023-03-22T01:46:21.227Z,0
2023-03-22T01:47:20.964Z,0
2023-03-22T01:48:21.271Z,0
2023-03-22T01:49:21.320Z,0
2023-03-22T01:50:21.000Z,0
2023-03-22T01:51:21.006Z,0
2023-03-22T01:52:20.993Z,0
2023-03-22T01:53:20.970Z,0
2023-03-22T01:54:21.043Z,0
2023-03-22T01:55:24.053Z,0
2023-03-22T01:56:20.976Z,0
2023-03-22T01:57:21.035Z,0
2023-03-22T01:58:20.985Z,0
2023-03-22T01:59:20.931Z,0
2023-03-22T02:00:24.117Z,0
2023-03-22T02:01:21.263Z,0
2023-03-22T02:02:21.247Z,0
2023-03-22T02:03:21.009Z,0
2023-03-22T02:04:20.956Z,0
2023-03-22T02:05:21.017Z,0
2023-03-22T02:06:23.853Z,0
2023-03-22T02:07:21.000Z,0
2023-03-22T02:08:20.967Z,0
2023-03-22T02:09:20.959Z,0
2023-03-22T02:10:21.018Z,0
2023-03-22T02:11:22.136Z,0
2023-03-22T02:12:20.982Z,0
2023-03-22T02:13:21.009Z,0
2023-03-22T02:14:20.994Z,0
2023-03-22T02:15:20.976Z,0
2023-03-22T02:16:21.285Z,0
2023-03-22T02:17:23.983Z,0
2023-03-22T02:18:21.147Z,0
2023-03-22T02:19:21.042Z,0
2023-03-22T02:20:21.044Z,0
2023-03-22T02:21:21.040Z,0
2023-03-22T02:22:23.760Z,0
2023-03-22T02:23:20.992Z,0
2023-03-22T02:24:21.010Z,0
2023-03-22T02:25:21.063Z,0
2023-03-22T02:26:21.086Z,0
2023-03-22T02:27:21.001Z,0
2023-03-22T02:28:24.103Z,0
2023-03-22T02:29:21.126Z,0
2023-03-22T02:30:21.060Z,0
2023-03-22T02:31:21.275Z,0
2023-03-22T02:32:21.010Z,0
2023-03-22T02:33:24.069Z,0
2023-03-22T02:34:21.000Z,0
2023-03-22T02:35:21.154Z,0
2023-03-22T02:36:21.071Z,0
2023-03-22T02:37:21.050Z,0
2023-03-22T02:38:21.054Z,0
2023-03-22T02:39:23.906Z,0
2023-03-22T02:40:21.074Z,0
2023-03-22T02:41:21.050Z,0
2023-03-22T02:42:21.128Z,0
2023-03-22T02:43:21.016Z,0
2023-03-22T02:44:23.894Z,0
2023-03-22T02:45:21.060Z,0
2023-03-22T02:46:21.368Z,0
2023-03-22T02:47:21.021Z,0
2023-03-22T02:48:21.614Z,0
2023-03-22T02:49:21.073Z,0
2023-03-22T02:50:23.771Z,0
2023-03-22T02:51:21.115Z,0
2023-03-22T02:52:21.133Z,0
2023-03-22T02:53:21.191Z,0
2023-03-22T02:54:21.041Z,0
2023-03-22T02:55:24.074Z,0
2023-03-22T02:56:21.070Z,0
2023-03-22T02:57:21.029Z,0
2023-03-22T02:58:21.090Z,0
2023-03-22T02:59:21.048Z,0
2023-03-22T03:00:21.380Z,0
2023-03-22T03:01:24.313Z,0
2023-03-22T03:02:21.346Z,0
2023-03-22T03:03:21.036Z,0
2023-03-22T03:04:21.080Z,0
2023-03-22T03:05:21.107Z,0
2023-03-22T03:06:22.880Z,0
2023-03-22T03:07:21.284Z,0
2023-03-22T03:08:21.078Z,0
2023-03-22T03:09:21.112Z,0
2023-03-22T03:10:21.069Z,0
2023-03-22T03:11:21.131Z,0
2023-03-22T03:12:23.904Z,0
2023-03-22T03:13:21.081Z,0
2023-03-22T03:14:21.132Z,0
2023-03-22T03:15:21.115Z,0
2023-03-22T03:16:21.344Z,0
2023-03-22T03:17:24.219Z,0
2023-03-22T03:18:21.088Z,0
2023-03-22T03:19:21.124Z,0
2023-03-22T03:20:21.129Z,0
2023-03-22T03:21:21.143Z,0
2023-03-22T03:22:21.113Z,0
2023-03-22T03:23:21.166Z,0
2023-03-22T03:24:21.112Z,0
2023-03-22T03:25:21.094Z,0
2023-03-22T03:26:21.126Z,0
2023-03-22T03:27:21.090Z,0
2023-03-22T03:28:24.203Z,0
2023-03-22T03:29:21.100Z,0
2023-03-22T03:30:21.167Z,0
2023-03-22T03:31:21.400Z,0
2023-03-22T03:32:21.149Z,0
2023-03-22T03:33:21.125Z,0
2023-03-22T03:34:21.134Z,0
2023-03-22T03:35:21.166Z,0
2023-03-22T03:36:21.176Z,0
2023-03-22T03:37:21.186Z,0
2023-03-22T03:38:21.093Z,0
2023-03-22T03:39:23.935Z,0
2023-03-22T03:40:21.149Z,0
2023-03-22T03:41:21.154Z,0
2023-03-22T03:42:21.139Z,0
2023-03-22T03:43:21.139Z,0
2023-03-22T03:44:21.114Z,0
2023-03-22T03:45:21.123Z,0
2023-03-22T03:46:21.322Z,0
2023-03-22T03:47:21.190Z,0
2023-03-22T03:48:21.531Z,0
2023-03-22T03:49:21.141Z,0
2023-03-22T03:50:21.130Z,0
2023-03-22T03:51:21.197Z,0
2023-03-22T03:52:21.169Z,0
2023-03-22T03:53:21.201Z,0
2023-03-22T03:54:21.152Z,0
2023-03-22T03:55:21.216Z,0
2023-03-22T03:56:21.520Z,0
2023-03-22T03:57:21.105Z,0
2023-03-22T03:58:21.142Z,0
2023-03-22T03:59:21.199Z,0
2023-03-22T04:00:21.157Z,0
2023-03-22T04:01:21.171Z,0
2023-03-22T04:02:21.649Z,0
2023-03-22T04:03:21.194Z,0
2023-03-22T04:04:21.650Z,0
2023-03-22T04:05:21.146Z,0
2023-03-22T04:06:21.182Z,0
2023-03-22T04:07:21.160Z,0
2023-03-22T04:08:21.166Z,0
2023-03-22T04:09:21.176Z,0
2023-03-22T04:10:21.169Z,0
2023-03-22T04:11:22.659Z,0
2023-03-22T04:12:21.187Z,0
2023-03-22T04:13:21.148Z,0
2023-03-22T04:14:21.180Z,0
2023-03-22T04:15:21.209Z,0
2023-03-22T04:16:22.386Z,0
2023-03-22T04:17:21.176Z,0
2023-03-22T04:18:21.245Z,0
2023-03-22T04:19:21.201Z,0
2023-03-22T04:20:21.234Z,0
2023-03-22T04:21:21.208Z,0
2023-03-22T04:22:24.307Z,0
2023-03-22T04:23:21.223Z,0
2023-03-22T04:24:21.200Z,0
2023-03-22T04:25:21.214Z,0
2023-03-22T04:26:21.280Z,0
2023-03-22T04:27:24.217Z,0
2023-03-22T04:28:21.262Z,0
2023-03-22T04:29:21.287Z,0
2023-03-22T04:30:21.337Z,0
2023-03-22T04:31:21.580Z,0
2023-03-22T04:32:21.302Z,0
2023-03-22T04:33:24.307Z,0
2023-03-22T04:34:21.205Z,0
2023-03-22T04:35:21.398Z,0
2023-03-22T04:36:21.327Z,0
2023-03-22T04:37:21.376Z,0
2023-03-22T04:38:22.249Z,0
2023-03-22T04:39:21.194Z,0
2023-03-22T04:40:21.259Z,0
2023-03-22T04:41:21.215Z,0
2023-03-22T04:42:21.204Z,0
2023-03-22T04:43:21.331Z,0
2023-03-22T04:44:24.300Z,0
2023-03-22T04:45:21.280Z,0
2023-03-22T04:46:21.656Z,0
2023-03-22T04:47:21.198Z,0
2023-03-22T04:48:21.582Z,0
2023-03-22T04:49:24.061Z,0
2023-03-22T04:50:21.200Z,0
2023-03-22T04:51:21.229Z,0
2023-03-22T04:52:21.238Z,0
2023-03-22T04:53:21.243Z,0
2023-03-22T04:54:21.247Z,0
2023-03-22T04:55:24.350Z,0
2023-03-22T04:56:21.223Z,0
2023-03-22T04:57:21.305Z,0
2023-03-22T04:58:21.233Z,0
2023-03-22T04:59:21.238Z,4
2023-03-22T05:00:24.157Z,0
2023-03-22T05:01:21.506Z,0
2023-03-22T05:02:21.267Z,4
2023-03-22T05:03:21.287Z,0
2023-03-22T05:04:21.247Z,4
2023-03-22T05:05:21.341Z,0
2023-03-22T05:06:24.258Z,4
2023-03-22T05:07:21.244Z,4
2023-03-22T05:08:21.279Z,4
2023-03-22T05:09:23.659Z,4
2023-03-22T05:10:21.261Z,8
2023-03-22T05:11:24.077Z,8
2023-03-22T05:12:21.278Z,8
2023-03-22T05:13:21.457Z,8
2023-03-22T05:14:21.523Z,8
2023-03-22T05:15:21.295Z,8
2023-03-22T05:16:21.546Z,8
2023-03-22T05:17:24.099Z,12
2023-03-22T05:18:21.295Z,12
2023-03-22T05:19:21.318Z,12
2023-03-22T05:20:21.265Z,16
2023-03-22T05:21:23.153Z,16
2023-03-22T05:22:22.374Z,16
2023-03-22T05:23:21.275Z,16
2023-03-22T05:24:21.282Z,20
2023-03-22T05:25:21.325Z,24
2023-03-22T05:26:21.310Z,24
2023-03-22T05:27:21.451Z,28
2023-03-22T05:28:23.844Z,32
2023-03-22T05:29:21.317Z,32
2023-03-22T05:30:24.366Z,36
2023-03-22T05:31:21.438Z,36
2023-03-22T05:32:21.320Z,40
2023-03-22T05:33:24.341Z,40
2023-03-22T05:34:21.291Z,44
2023-03-22T05:35:21.348Z,48
2023-03-22T05:36:21.322Z,52
2023-03-22T05:37:21.197Z,52
2023-03-22T05:38:21.310Z,56
2023-03-22T05:39:24.083Z,60
2023-03-22T05:40:21.308Z,64
2023-03-22T05:41:21.321Z,68
2023-03-22T05:42:21.315Z,72
2023-03-22T05:43:21.283Z,72
2023-03-22T05:44:24.190Z,80
2023-03-22T05:45:21.377Z,80
2023-03-22T05:46:21.521Z,84
2023-03-22T05:47:21.330Z,88
2023-03-22T05:48:21.524Z,92
2023-03-22T05:49:21.454Z,96
2023-03-22T05:50:21.313Z,104
2023-03-22T05:51:21.164Z,108
2023-03-22T05:52:21.332Z,112
2023-03-22T05:53:21.345Z,116
2023-03-22T05:54:21.363Z,124
2023-03-22T05:55:25.416Z,128
2023-03-22T05:56:21.358Z,136
2023-03-22T05:57:21.355Z,136
2023-03-22T05:58:21.584Z,140
2023-03-22T05:59:21.370Z,144
2023-03-22T06:00:21.339Z,152
2023-03-22T06:01:21.365Z,152
2023-03-22T06:02:21.749Z,156
2023-03-22T06:03:23.955Z,160
2023-03-22T06:04:21.324Z,164
2023-03-22T06:05:21.345Z,168
2023-03-22T06:06:24.224Z,172
2023-03-22T06:07:21.359Z,180
2023-03-22T06:08:21.346Z,188
2023-03-22T06:09:24.666Z,192
2023-03-22T06:10:21.354Z,196
2023-03-22T06:11:21.336Z,200
2023-03-22T06:12:21.432Z,212
2023-03-22T06:13:21.656Z,224
2023-03-22T06:14:21.382Z,236
2023-03-22T06:15:21.346Z,268
2023-03-22T06:16:21.670Z,328
2023-03-22T06:17:21.393Z,380
2023-03-22T06:18:21.498Z,412
2023-03-22T06:19:21.356Z,452
2023-03-22T06:20:21.429Z,508
2023-03-22T06:21:21.354Z,544
2023-03-22T06:22:21.400Z,576
2023-03-22T06:23:21.361Z,640
2023-03-22T06:24:21.374Z,696
2023-03-22T06:25:21.412Z,728
2023-03-22T06:26:21.394Z,752
2023-03-22T06:27:21.434Z,776
2023-03-22T06:28:21.432Z,808
2023-03-22T06:29:21.470Z,792
2023-03-22T06:30:21.408Z,836
2023-03-22T06:31:21.860Z,892
2023-03-22T06:32:21.445Z,968
2023-03-22T06:33:21.417Z,972
2023-03-22T06:34:21.430Z,1000
2023-03-22T06:35:21.506Z,896
2023-03-22T06:36:21.385Z,696
2023-03-22T06:37:21.393Z,656
2023-03-22T06:38:24.725Z,936
2023-03-22T06:39:21.396Z,1176
2023-03-22T06:40:21.398Z,1256
2023-03-22T06:41:21.413Z,1272
2023-03-22T06:42:21.430Z,1220
2023-03-22T06:43:21.441Z,1176
2023-03-22T06:44:21.419Z,1196
2023-03-22T06:45:21.514Z,1228
2023-03-22T06:46:21.777Z,1280
2023-03-22T06:47:21.415Z,1340
2023-03-22T06:48:21.748Z,1344
2023-03-22T06:49:22.508Z,1308
2023-03-22T06:50:21.488Z,1236
2023-03-22T06:51:21.424Z,1196
2023-03-22T06:52:21.444Z,1164
2023-03-22T06:53:22.453Z,1124
2023-03-22T06:54:24.530Z,1108
2023-03-22T06:55:21.443Z,1160
2023-03-22T06:56:21.425Z,1360
2023-03-22T06:57:21.574Z,1488
2023-03-22T06:58:21.439Z,1476
2023-03-22T06:59:21.441Z,1248
2023-03-22T07:00:24.468Z,1472
2023-03-22T07:01:21.656Z,1528
2023-03-22T07:02:21.450Z,1460
2023-03-22T07:03:21.409Z,1492
2023-03-22T07:04:21.748Z,1548
2023-03-22T07:05:24.274Z,1568
2023-03-22T07:06:21.246Z,1592
2023-03-22T07:07:21.134Z,1520
2023-03-22T07:08:21.422Z,1448
2023-03-22T07:09:21.407Z,1580
2023-03-22T07:10:21.437Z,1640
2023-03-22T07:11:24.194Z,1704
2023-03-22T07:12:22.147Z,1748
2023-03-22T07:13:21.294Z,1828
2023-03-22T07:14:21.274Z,1860
2023-03-22T07:15:21.424Z,1868
2023-03-22T07:16:27.139Z,1912
2023-03-22T07:17:21.340Z,1928
2023-03-22T07:18:21.452Z,1956
2023-03-22T07:19:21.273Z,1976
2023-03-22T07:20:21.487Z,2032
2023-03-22T07:21:21.603Z,2068
2023-03-22T07:22:24.305Z,2028
2023-03-22T07:23:21.475Z,2040
2023-03-22T07:24:21.451Z,2104
2023-03-22T07:25:21.461Z,2120
2023-03-22T07:26:21.530Z,2032
2023-03-22T07:27:25.402Z,2088
2023-03-22T07:28:21.481Z,2156
2023-03-22T07:29:21.505Z,2152
2023-03-22T07:30:21.450Z,2156
2023-03-22T07:31:21.486Z,2112
2023-03-22T07:32:21.892Z,2116
2023-03-22T07:33:22.569Z,2204
2023-03-22T07:34:21.532Z,2208
2023-03-22T07:35:21.684Z,2224
2023-03-22T07:36:21.478Z,2176
2023-03-22T07:37:21.554Z,2128
2023-03-22T07:38:24.616Z,2020
2023-03-22T07:39:21.467Z,2232
2023-03-22T07:40:21.497Z,2268
2023-03-22T07:41:21.474Z,2264
2023-03-22T07:42:21.505Z,2296
2023-03-22T07:43:21.516Z,2264
2023-03-22T07:44:27.578Z,2264
2023-03-22T07:45:21.690Z,2208
2023-03-22T07:46:21.750Z,2260
2023-03-22T07:47:42.315Z,2312
2023-03-22T07:48:24.769Z,2300
2023-03-22T07:49:24.296Z,2232
2023-03-22T07:50:21.691Z,2296
2023-03-22T07:51:21.582Z,2232
2023-03-22T07:52:21.529Z,2200
2023-03-22T07:53:21.582Z,2228
2023-03-22T07:54:39.385Z,2252
2023-03-22T07:55:24.650Z,2240
2023-03-22T07:56:21.517Z,2232
2023-03-22T07:57:21.556Z,2196
2023-03-22T07:58:21.531Z,2116
2023-03-22T07:59:21.733Z,2044
2023-03-22T08:00:24.330Z,2088
2023-03-22T08:01:21.558Z,2048
2023-03-22T08:02:21.923Z,2072
2023-03-22T08:03:21.786Z,2080
2023-03-22T08:04:21.561Z,2036
2023-03-22T08:05:21.554Z,2000
2023-03-22T08:06:24.669Z,1988
2023-03-22T08:07:21.572Z,1988
2023-03-22T08:08:21.545Z,1940
2023-03-22T08:09:21.640Z,1904
2023-03-22T08:10:21.579Z,1956
2023-03-22T08:11:24.667Z,1948
2023-03-22T08:12:21.645Z,1908
2023-03-22T08:13:21.533Z,1920
2023-03-22T08:14:38.561Z,1888
2023-03-22T08:15:24.735Z,1912
2023-03-22T08:16:21.796Z,1908
2023-03-22T08:17:21.590Z,1956
2023-03-22T08:18:21.558Z,1912
2023-03-22T08:19:21.560Z,1888
2023-03-22T08:20:21.625Z,1852
2023-03-22T08:21:22.035Z,1912
2023-03-22T08:22:24.403Z,1892
2023-03-22T08:23:40.776Z,1888
2023-03-22T08:24:21.572Z,1836
2023-03-22T08:25:21.620Z,1848
2023-03-22T08:26:21.665Z,1816
2023-03-22T08:27:21.597Z,1772
2023-03-22T08:28:21.600Z,1772
2023-03-22T08:29:21.571Z,1768
2023-03-22T08:30:21.633Z,1772
2023-03-22T08:31:22.620Z,1708
2023-03-22T08:32:21.650Z,1712
2023-03-22T08:33:24.632Z,1672
2023-03-22T08:34:21.573Z,1588
2023-03-22T08:35:21.752Z,1596
2023-03-22T08:36:21.659Z,1640
2023-03-22T08:37:21.682Z,1624
2023-03-22T08:38:21.591Z,1604
2023-03-22T08:39:21.612Z,1580
2023-03-22T08:40:21.796Z,1548
2023-03-22T08:41:21.653Z,1580
2023-03-22T08:42:21.660Z,1628
2023-03-22T08:43:21.607Z,1672
2023-03-22T08:44:21.650Z,1684
2023-03-22T08:45:21.631Z,1692
2023-03-22T08:46:21.927Z,1692
2023-03-22T08:47:21.652Z,1672
2023-03-22T08:48:22.073Z,1604
2023-03-22T08:49:21.647Z,1628
2023-03-22T08:50:21.636Z,1568
2023-03-22T08:51:23.792Z,1564
2023-03-22T08:52:21.678Z,1576
2023-03-22T08:53:21.634Z,1620
2023-03-22T08:54:21.643Z,1628
2023-03-22T08:55:21.622Z,1656
2023-03-22T08:56:21.605Z,1656
2023-03-22T08:57:21.693Z,1632
2023-03-22T08:58:21.597Z,1648
2023-03-22T08:59:21.618Z,1696
2023-03-22T09:00:21.699Z,1688
2023-03-22T09:01:22.121Z,1680
2023-03-22T09:02:22.078Z,1728
2023-03-22T09:03:21.664Z,1712
2023-03-22T09:04:21.915Z,1712
2023-03-22T09:05:24.674Z,1720
2023-03-22T09:06:21.657Z,1724
2023-03-22T09:07:21.658Z,1716
2023-03-22T09:08:26.425Z,1708
2023-03-22T09:09:21.648Z,1720
2023-03-22T09:10:21.645Z,1748
2023-03-22T09:11:27.279Z,1772
2023-03-22T09:12:21.780Z,1772
2023-03-22T09:13:21.865Z,1796
2023-03-22T09:14:21.693Z,1840
2023-03-22T09:15:21.676Z,1876
2023-03-22T09:16:25.156Z,1944
2023-03-22T09:17:24.687Z,2020
2023-03-22T09:18:21.689Z,2092
2023-03-22T09:19:21.696Z,2108
2023-03-22T09:20:21.702Z,2196
2023-03-22T09:21:24.804Z,2148
2023-03-22T09:22:21.727Z,2484
2023-03-22T09:23:21.733Z,2704
2023-03-22T09:24:21.746Z,468
2023-03-22T09:25:21.714Z,464
2023-03-22T09:26:21.733Z,3392
2023-03-22T09:27:24.858Z,560
2023-03-22T09:28:22.081Z,3096
2023-03-22T09:29:21.856Z,728
2023-03-22T09:30:21.775Z,564
2023-03-22T09:31:25.005Z,512
2023-03-22T09:32:23.407Z,616
2023-03-22T09:33:21.680Z,812
2023-03-22T09:34:21.714Z,3204
2023-03-22T09:35:21.759Z,1780
2023-03-22T09:36:21.713Z,888
2023-03-22T09:37:21.716Z,552
2023-03-22T09:38:23.773Z,2432
2023-03-22T09:39:21.721Z,3380
2023-03-22T09:40:21.821Z,3168
2023-03-22T09:41:21.733Z,2896
2023-03-22T09:42:21.749Z,2772
2023-03-22T09:43:24.561Z,2552
2023-03-22T09:44:21.717Z,1716
2023-03-22T09:45:21.829Z,2304
2023-03-22T09:46:22.122Z,2284
2023-03-22T09:47:21.758Z,2208
2023-03-22T09:48:22.044Z,668
2023-03-22T09:49:24.502Z,668
2023-03-22T09:50:21.814Z,2040
2023-03-22T09:51:21.746Z,2016
2023-03-22T09:52:22.186Z,1980
2023-03-22T09:53:21.721Z,1972
2023-03-22T09:54:24.610Z,2032
2023-03-22T09:55:21.759Z,1908
2023-03-22T09:56:21.823Z,1868
2023-03-22T09:57:21.807Z,1860
2023-03-22T09:58:21.871Z,1404
2023-03-22T09:59:21.723Z,404
2023-03-22T10:00:25.051Z,1904
2023-03-22T10:01:26.006Z,1876
2023-03-22T10:02:22.305Z,1860
2023-03-22T10:03:21.716Z,1856
2023-03-22T10:04:22.039Z,1856
2023-03-22T10:05:21.942Z,1868
2023-03-22T10:06:21.743Z,1824
2023-03-22T10:07:21.751Z,540
2023-03-22T10:08:21.769Z,584
2023-03-22T10:09:21.812Z,516
2023-03-22T10:10:21.786Z,1336
2023-03-22T10:11:24.601Z,1496
2023-03-22T10:12:21.816Z,500
2023-03-22T10:13:21.784Z,500
2023-03-22T10:14:21.751Z,544
2023-03-22T10:15:21.756Z,912
2023-03-22T10:16:25.295Z,1808
2023-03-22T10:17:21.948Z,1692
2023-03-22T10:18:21.802Z,1692
2023-03-22T10:19:21.827Z,1668
2023-03-22T10:20:21.985Z,1668
2023-03-22T10:21:21.830Z,1576
2023-03-22T10:22:24.929Z,924
2023-03-22T10:23:21.779Z,656
2023-03-22T10:24:21.915Z,1760
2023-03-22T10:25:21.787Z,1636
2023-03-22T10:26:21.832Z,1520
2023-03-22T10:27:23.208Z,1768
2023-03-22T10:28:21.843Z,1772
2023-03-22T10:29:21.815Z,1224
2023-03-22T10:30:21.892Z,584
2023-03-22T10:31:21.893Z,1760
2023-03-22T10:32:21.901Z,1732
2023-03-22T10:33:21.820Z,1688
2023-03-22T10:34:21.800Z,1432
2023-03-22T10:35:21.979Z,1308
2023-03-22T10:36:21.849Z,1640
2023-03-22T10:37:21.824Z,1504
2023-03-22T10:38:27.821Z,1208
2023-03-22T10:39:21.814Z,1312
2023-03-22T10:40:21.840Z,1336
2023-03-22T10:41:21.848Z,1476
2023-03-22T10:42:21.853Z,1516
2023-03-22T10:43:21.827Z,1240
2023-03-22T10:44:21.818Z,1432
2023-03-22T10:45:22.043Z,1324
2023-03-22T10:46:22.140Z,1140
2023-03-22T10:47:21.834Z,908
2023-03-22T10:48:24.731Z,872
2023-03-22T10:49:25.874Z,1224
2023-03-22T10:50:22.403Z,1340
2023-03-22T10:51:24.625Z,1420
2023-03-22T10:52:21.995Z,1492
2023-03-22T10:53:21.865Z,1512
2023-03-22T10:54:21.862Z,1520
2023-03-22T10:55:21.828Z,1508
2023-03-22T10:56:21.857Z,1528
2023-03-22T10:57:22.039Z,1260
2023-03-22T10:58:21.866Z,1532
2023-03-22T10:59:21.840Z,1528
2023-03-22T11:00:25.100Z,1512
2023-03-22T11:01:22.519Z,1508
2023-03-22T11:02:22.691Z,1488
2023-03-22T11:03:21.967Z,1472
2023-03-22T11:04:22.106Z,1456
2023-03-22T11:05:21.938Z,1472
2023-03-22T11:06:21.910Z,1476
2023-03-22T11:07:21.722Z,1444
2023-03-22T11:08:21.856Z,1484
2023-03-22T11:09:22.030Z,1480
2023-03-22T11:10:22.205Z,1484
2023-03-22T11:11:21.933Z,1448
2023-03-22T11:12:21.911Z,1392
2023-03-22T11:13:21.865Z,1304
2023-03-22T11:14:21.869Z,1324
2023-03-22T11:15:21.876Z,1392
2023-03-22T11:16:24.915Z,1432
2023-03-22T11:17:21.929Z,1436
2023-03-22T11:18:21.895Z,1404
2023-03-22T11:19:21.894Z,1456
2023-03-22T11:20:22.307Z,1452
2023-03-22T11:21:21.958Z,1456
2023-03-22T11:22:21.924Z,1444
2023-03-22T11:23:21.750Z,1424
2023-03-22T11:24:21.900Z,1344
2023-03-22T11:25:21.751Z,1348
2023-03-22T11:26:21.924Z,1376
2023-03-22T11:27:21.760Z,1236
2023-03-22T11:28:21.997Z,860
2023-03-22T11:29:21.912Z,872
2023-03-22T11:30:22.042Z,1048
2023-03-22T11:31:22.235Z,1312
2023-03-22T11:32:22.653Z,1316
2023-03-22T11:33:22.169Z,1364
2023-03-22T11:34:22.004Z,1360
2023-03-22T11:35:21.902Z,1372
2023-03-22T11:36:21.983Z,1392
2023-03-22T11:37:24.931Z,1412
2023-03-22T11:38:26.546Z,1404
2023-03-22T11:39:21.927Z,1388
2023-03-22T11:40:22.089Z,1388
2023-03-22T11:41:22.650Z,1384
2023-03-22T11:42:21.924Z,1400
2023-03-22T11:43:24.906Z,1392
2023-03-22T11:44:22.018Z,1380
2023-03-22T11:45:21.937Z,1384
2023-03-22T11:46:22.206Z,1376
2023-03-22T11:47:21.963Z,1372
2023-03-22T11:48:23.080Z,1384
2023-03-22T11:49:22.040Z,1364
2023-03-22T11:50:22.061Z,1340
2023-03-22T11:51:21.964Z,1344
2023-03-22T11:52:21.973Z,1328
2023-03-22T11:53:22.041Z,1268
2023-03-22T11:54:24.997Z,1264
2023-03-22T11:55:21.944Z,1208
2023-03-22T11:56:21.971Z,1164
2023-03-22T11:57:22.072Z,1168
2023-03-22T11:58:23.604Z,1204
2023-03-22T11:59:25.078Z,1200
2023-03-22T12:00:21.997Z,1156
2023-03-22T12:01:21.993Z,1152
2023-03-22T12:02:22.155Z,1148
2023-03-22T12:03:22.735Z,1144
2023-03-22T12:04:22.239Z,1184
2023-03-22T12:05:25.272Z,1104
2023-03-22T12:06:22.352Z,1020
2023-03-22T12:07:21.997Z,792
2023-03-22T12:08:22.061Z,1140
2023-03-22T12:09:22.027Z,1004
2023-03-22T12:10:24.786Z,1028
2023-03-22T12:11:22.035Z,988
2023-03-22T12:12:22.067Z,844
2023-03-22T12:13:22.095Z,664
2023-03-22T12:14:22.038Z,700
2023-03-22T12:15:22.058Z,720
2023-03-22T12:16:27.348Z,860
2023-03-22T12:17:21.982Z,904
2023-03-22T12:18:22.340Z,532
2023-03-22T12:19:22.003Z,892
2023-03-22T12:20:22.056Z,972
2023-03-22T12:21:25.089Z,1012
2023-03-22T12:22:22.034Z,928
2023-03-22T12:23:22.088Z,976
2023-03-22T12:24:22.032Z,1080
2023-03-22T12:25:23.896Z,936
2023-03-22T12:26:22.066Z,1140
2023-03-22T12:27:24.858Z,1152
2023-03-22T12:28:22.036Z,1296
2023-03-22T12:29:22.199Z,1304
2023-03-22T12:30:22.239Z,1296
2023-03-22T12:31:22.370Z,1272
2023-03-22T12:32:24.970Z,1280
2023-03-22T12:33:22.374Z,1268
2023-03-22T12:34:22.066Z,1296
2023-03-22T12:35:24.971Z,1292
2023-03-22T12:36:22.267Z,1276
2023-03-22T12:37:22.061Z,1272
2023-03-22T12:38:24.853Z,1236
2023-03-22T12:39:22.033Z,1152
2023-03-22T12:40:22.159Z,956
2023-03-22T12:41:22.221Z,988
2023-03-22T12:42:22.046Z,988
2023-03-22T12:43:23.325Z,1004
2023-03-22T12:44:22.031Z,932
2023-03-22T12:45:22.081Z,764
2023-03-22T12:46:22.336Z,788
2023-03-22T12:47:22.268Z,828
2023-03-22T12:48:22.629Z,776
2023-03-22T12:49:25.161Z,692
2023-03-22T12:50:22.236Z,644
2023-03-22T12:51:22.107Z,700
2023-03-22T12:52:22.180Z,780
2023-03-22T12:53:22.104Z,912
2023-03-22T12:54:23.146Z,1076
2023-03-22T12:55:22.354Z,1116
2023-03-22T12:56:22.120Z,1164
2023-03-22T12:57:22.137Z,1064
2023-03-22T12:58:22.132Z,1016
2023-03-22T12:59:22.068Z,968
2023-03-22T13:00:22.163Z,1104
2023-03-22T13:01:22.690Z,1240
2023-03-22T13:02:22.105Z,1232
2023-03-22T13:03:22.921Z,1080
2023-03-22T13:04:22.277Z,1008
2023-03-22T13:05:24.923Z,860
2023-03-22T13:06:22.110Z,696
2023-03-22T13:07:22.150Z,560
2023-03-22T13:08:22.157Z,572
2023-03-22T13:09:22.122Z,544
2023-03-22T13:10:22.107Z,524
2023-03-22T13:11:22.157Z,532
2023-03-22T13:12:22.225Z,564
2023-03-22T13:13:22.245Z,600
2023-03-22T13:14:22.162Z,636
2023-03-22T13:15:31.701Z,664
2023-03-22T13:16:25.462Z,688
2023-03-22T13:17:22.109Z,636
2023-03-22T13:18:22.212Z,648
2023-03-22T13:19:22.131Z,668
2023-03-22T13:20:22.209Z,680
2023-03-22T13:21:22.271Z,676
2023-03-22T13:22:22.153Z,776
2023-03-22T13:23:22.174Z,856
2023-03-22T13:24:22.174Z,872
2023-03-22T13:25:22.172Z,872
2023-03-22T13:26:22.104Z,876
2023-03-22T13:27:25.085Z,924
2023-03-22T13:28:22.185Z,1012
2023-03-22T13:29:22.251Z,1012
2023-03-22T13:30:22.161Z,1028
2023-03-22T13:31:22.171Z,1052
2023-03-22T13:32:22.343Z,992
2023-03-22T13:33:22.471Z,908
2023-03-22T13:34:22.141Z,972
2023-03-22T13:35:22.308Z,932
2023-03-22T13:36:22.202Z,980
2023-03-22T13:37:22.150Z,932
2023-03-22T13:38:22.172Z,880
2023-03-22T13:39:22.179Z,832
2023-03-22T13:40:22.180Z,796
2023-03-22T13:41:22.143Z,824
2023-03-22T13:42:22.157Z,872
2023-03-22T13:43:25.296Z,796
2023-03-22T13:44:22.174Z,888
2023-03-22T13:45:22.223Z,908
2023-03-22T13:46:22.971Z,904
2023-03-22T13:47:22.173Z,1020
2023-03-22T13:48:22.759Z,1112
2023-03-22T13:49:22.366Z,1136
2023-03-22T13:50:22.207Z,1144
2023-03-22T13:51:22.292Z,1108
2023-03-22T13:52:22.223Z,1096
2023-03-22T13:53:22.238Z,1048
2023-03-22T13:54:22.184Z,908
2023-03-22T13:55:25.408Z,732
2023-03-22T13:56:22.338Z,688
2023-03-22T13:57:22.189Z,664